Terminal Aerodrome Forecast
Issued by NWS

Home | Current Version | Previous Version | Text Only | Print | Product List | Glossary On
Versions: 1 2 3 4 5 6 7 8 9 10 11 12 13 14 15 16 17 18 19
766
FTUS43 KLSX 240301 AAA
TAFCPS
TAF AMD
KCPS 240301Z 2403/2424 16009KT P6SM SCT025 BKN080
      TEMPO 2403/2406 BKN025
     FM240900 16010KT P6SM VCTS SCT030CB OVC060
      TEMPO 2410/2412 5SM -TSRA BKN025CB
     FM241300 19011KT P6SM SCT050 BKN080
     FM241800 22012KT P6SM SCT040 BKN250=

USA.gov is the U.S. government's official web portal to all federal, state and local government web resources and services.